TimeCDT,TemperatureF,Dew PointF,Humidity,Sea Level PressureIn,VisibilityMPH,Wind Direction,Wind SpeedMPH,Gust SpeedMPH,PrecipitationIn,Events,Conditions,WindDirDegrees,DateUTC
12:53 AM,32.0,28.0,85,30.12,10.0,South,3.5,-,N/A,,Clear,170,2014-03-13 05:53:00
1:53 AM,32.0,28.9,88,30.11,10.0,South,3.5,-,N/A,,Clear,170,2014-03-13 06:53:00
2:53 AM,30.0,25.0,82,30.09,10.0,SSE,3.5,-,N/A,,Clear,160,2014-03-13 07:53:00
3:53 AM,30.0,25.0,82,30.07,10.0,SSE,4.6,-,N/A,,Clear,150,2014-03-13 08:53:00
4:53 AM,26.1,21.9,84,30.07,10.0,Calm,Calm,-,N/A,,Clear,0,2014-03-13 09:53:00
5:53 AM,27.0,21.9,81,30.07,10.0,Calm,Calm,-,N/A,,Clear,0,2014-03-13 10:53:00
6:53 AM,23.0,21.0,92,30.08,10.0,Calm,Calm,-,N/A,,Clear,0,2014-03-13 11:53:00
7:53 AM,28.0,25.0,88,30.08,10.0,SSW,3.5,-,N/A,,Clear,200,2014-03-13 12:53:00
8:53 AM,34.0,28.0,79,30.10,10.0,South,4.6,-,N/A,,Clear,190,2014-03-13 13:53:00
9:53 AM,39.9,28.0,63,30.09,10.0,South,5.8,-,N/A,,Clear,190,2014-03-13 14:53:00
10:53 AM,45.0,28.9,53,30.08,10.0,South,4.6,-,N/A,,Clear,190,2014-03-13 15:53:00
11:53 AM,52.0,30.9,45,30.05,10.0,SSW,5.8,-,N/A,,Clear,210,2014-03-13 16:53:00
12:53 PM,60.1,30.9,33,30.02,10.0,SSW,10.4,-,N/A,,Clear,200,2014-03-13 17:53:00
1:53 PM,64.0,28.0,26,29.99,10.0,SW,8.1,18.4,N/A,,Clear,230,2014-03-13 18:53:00
2:53 PM,66.0,27.0,23,29.95,10.0,SW,15.0,-,N/A,,Clear,220,2014-03-13 19:53:00
3:53 PM,66.0,27.0,23,29.92,10.0,WSW,13.8,-,N/A,,Clear,250,2014-03-13 20:53:00
4:53 PM,66.9,28.0,23,29.88,10.0,SSW,17.3,23.0,N/A,,Clear,210,2014-03-13 21:53:00
5:53 PM,66.0,26.1,22,29.86,10.0,SW,17.3,-,N/A,,Clear,220,2014-03-13 22:53:00
6:53 PM,62.1,27.0,26,29.84,10.0,SSW,10.4,-,N/A,,Clear,210,2014-03-13 23:53:00
7:53 PM,51.1,28.9,43,29.84,10.0,South,6.9,-,N/A,,Clear,190,2014-03-14 00:53:00
8:53 PM,48.9,30.0,48,29.83,10.0,South,8.1,-,N/A,,Clear,190,2014-03-14 01:53:00
9:53 PM,48.9,27.0,43,29.82,10.0,SSW,6.9,-,N/A,,Clear,200,2014-03-14 02:53:00
10:53 PM,52.0,25.0,35,29.80,10.0,SSW,12.7,-,N/A,,Clear,200,2014-03-14 03:53:00
11:53 PM,50.0,25.0,38,29.79,10.0,SSW,11.5,-,N/A,,Clear,200,2014-03-14 04:53:00